createdAt,value
2018-01-11T00:02:54.950Z,17.60
2018-01-11T00:08:59.386Z,18.37
2018-01-11T00:15:02.916Z,19.97
2018-01-11T00:21:07.146Z,19.60
2018-01-11T00:27:10.729Z,18.10
2018-01-11T00:33:14.473Z,15.30
2018-01-11T00:39:18.675Z,16.60
2018-01-11T00:45:22.885Z,19.63
2018-01-11T00:51:26.478Z,18.00
2018-01-11T00:57:29.874Z,19.27
2018-01-11T01:03:33.429Z,18.00
2018-01-11T01:09:36.890Z,19.00
2018-01-11T01:15:40.364Z,19.77
2018-01-11T01:21:43.837Z,18.47
2018-01-11T01:27:47.342Z,16.33
2018-01-11T01:33:50.933Z,21.40
2018-01-11T01:39:55.494Z,18.07
2018-01-11T01:45:59.138Z,18.97
2018-01-11T01:52:02.580Z,18.97
2018-01-11T01:58:06.814Z,15.60
2018-01-11T02:04:10.319Z,14.30
2018-01-11T02:10:13.780Z,14.57
2018-01-11T02:16:17.232Z,12.17
2018-01-11T02:22:20.673Z,14.30
2018-01-11T02:28:24.293Z,12.40
2018-01-11T02:34:28.102Z,15.07
2018-01-11T02:40:31.550Z,16.37
2018-01-11T02:46:34.991Z,19.70
2018-01-11T02:52:38.463Z,16.23
2018-01-11T02:58:41.944Z,16.77
2018-01-11T03:04:45.379Z,17.17
2018-01-11T03:10:49.159Z,20.63
2018-01-11T03:16:52.644Z,19.80
2018-01-11T03:22:57.055Z,19.30
2018-01-11T03:29:00.588Z,18.67
2018-01-11T03:35:04.799Z,20.80
2018-01-11T03:41:08.262Z,19.60
2018-01-11T03:47:12.642Z,17.10
2018-01-11T03:53:16.090Z,18.27
2018-01-11T03:59:19.560Z,19.37
2018-01-11T04:05:23.009Z,19.40
2018-01-11T04:11:27.502Z,19.43
2018-01-11T04:17:30.959Z,20.10
2018-01-11T04:23:35.350Z,20.20
2018-01-11T04:29:39.558Z,18.90
2018-01-11T04:35:43.035Z,18.67
2018-01-11T04:41:46.554Z,18.83
2018-01-11T04:47:50.770Z,20.33
2018-01-11T04:53:54.415Z,19.40
2018-01-11T04:59:58.929Z,18.33
2018-01-11T05:06:02.428Z,17.80
2018-01-11T05:12:06.006Z,19.00
2018-01-11T05:18:09.657Z,19.10
2018-01-11T05:24:13.230Z,17.33
2018-01-11T05:30:17.435Z,19.67
2018-01-11T05:36:21.060Z,19.00
2018-01-11T05:42:25.191Z,20.73
2018-01-11T05:48:28.821Z,20.37
2018-01-11T05:54:32.280Z,20.37
2018-01-11T06:00:36.021Z,18.70
2018-01-11T06:06:39.482Z,18.60
2018-01-11T06:12:42.950Z,23.07
2018-01-11T06:18:46.554Z,23.47
2018-01-11T06:24:50.028Z,23.50
2018-01-11T06:30:54.856Z,24.37
2018-01-11T06:36:59.196Z,23.17
2018-01-11T06:43:02.671Z,21.70
2018-01-11T06:49:06.945Z,19.20
2018-01-11T06:55:10.476Z,20.57
2018-01-11T07:01:14.790Z,22.00
2018-01-11T07:07:18.268Z,20.13
2018-01-11T07:13:22.029Z,22.13
2018-01-11T07:19:25.571Z,23.00
2018-01-11T07:25:29.069Z,40.30
2018-01-11T07:31:32.557Z,19.60
2018-01-11T07:37:36.127Z,22.90
2018-01-11T07:43:39.572Z,20.10
2018-01-11T07:49:43.060Z,17.73
2018-01-11T07:55:47.060Z,17.50
2018-01-11T08:01:50.538Z,28.27
2018-01-11T08:07:54.050Z,19.83
2018-01-11T08:13:58.468Z,30.20
2018-01-11T08:20:02.031Z,34.03
2018-01-11T08:26:05.519Z,29.50
2018-01-11T08:32:08.961Z,29.27
2018-01-11T08:38:12.458Z,33.70
2018-01-11T08:44:15.923Z,23.37
2018-01-11T08:50:19.359Z,32.10
2018-01-11T08:56:24.181Z,39.00
2018-01-11T09:02:28.216Z,40.40
2018-01-11T09:08:32.431Z,39.17
2018-01-11T09:14:35.905Z,38.23
2018-01-11T09:20:39.632Z,31.03
2018-01-11T09:26:43.094Z,30.27
2018-01-11T09:32:46.528Z,22.30
2018-01-11T09:38:50.003Z,23.70
2018-01-11T09:44:53.699Z,22.37
2018-01-11T09:50:57.844Z,26.27
2018-01-11T09:57:01.456Z,21.67
2018-01-11T10:03:05.191Z,19.03
2018-01-11T10:09:09.417Z,23.07
2018-01-11T10:15:12.924Z,27.00
2018-01-11T10:21:17.166Z,23.67
2018-01-11T10:27:20.618Z,23.90
2018-01-11T10:33:24.117Z,20.00
2018-01-11T10:39:28.433Z,19.93
2018-01-11T10:45:31.874Z,22.63
2018-01-11T10:51:35.344Z,20.87
2018-01-11T10:57:38.860Z,24.30
2018-01-11T11:03:42.314Z,23.60
2018-01-11T11:09:45.740Z,22.00
2018-01-11T11:15:49.950Z,24.13
2018-01-11T11:21:53.438Z,20.53
2018-01-11T11:27:57.287Z,22.00
2018-01-11T11:34:00.765Z,23.03
2018-01-11T11:40:04.205Z,21.47
2018-01-11T11:46:07.650Z,20.83
2018-01-11T11:52:11.126Z,26.80
2018-01-11T11:58:15.325Z,25.17
2018-01-11T12:04:18.800Z,23.67
2018-01-11T12:10:22.303Z,23.40
2018-01-11T12:16:26.213Z,21.10
2018-01-11T12:22:30.748Z,22.00
2018-01-11T12:28:34.966Z,20.33
2018-01-11T12:34:38.432Z,22.43
2018-01-11T12:40:41.905Z,21.30
2018-01-11T12:46:45.378Z,23.20
2018-01-11T12:52:49.613Z,31.43
2018-01-11T12:58:53.110Z,30.80
2018-01-11T13:04:57.650Z,36.70
2018-01-11T13:11:01.118Z,32.50
2018-01-11T13:17:04.591Z,45.13
2018-01-11T13:23:09.007Z,84.13
2018-01-11T13:29:12.472Z,22.70
2018-01-11T13:35:15.921Z,26.17
2018-01-11T13:41:19.427Z,25.50
2018-01-11T13:47:23.702Z,24.73
2018-01-11T13:53:27.246Z,24.13
2018-01-11T13:59:30.766Z,24.10
2018-01-11T14:05:34.213Z,22.30
2018-01-11T14:11:37.662Z,21.07
2018-01-11T14:17:41.106Z,20.27
2018-01-11T14:23:44.544Z,20.70
2018-01-11T14:29:48.039Z,21.73
2018-01-11T14:35:51.486Z,21.10
2018-01-11T14:41:54.972Z,22.00
2018-01-11T14:47:59.348Z,19.77
2018-01-11T14:54:02.964Z,23.17
2018-01-11T15:00:06.433Z,23.17
2018-01-11T15:06:09.967Z,22.20
2018-01-11T15:12:13.427Z,22.50
2018-01-11T15:18:16.905Z,25.10
2018-01-11T15:24:20.342Z,22.47
2018-01-11T15:30:23.834Z,23.80
2018-01-11T15:36:28.202Z,21.90
2018-01-11T15:42:32.482Z,24.30
2018-01-11T15:48:36.695Z,19.70
2018-01-11T15:54:40.245Z,20.47
2018-01-11T16:00:43.685Z,19.87
2018-01-11T16:06:47.130Z,20.20
2018-01-11T16:12:50.546Z,21.80
2018-01-11T16:18:54.247Z,23.70
2018-01-11T16:24:58.040Z,24.90
2018-01-11T16:31:01.507Z,24.40
2018-01-11T16:37:04.972Z,25.50
2018-01-11T16:43:09.268Z,27.20
2018-01-11T16:49:13.498Z,24.70
2018-01-11T16:55:16.975Z,26.37
2018-01-11T17:01:21.192Z,23.20
2018-01-11T17:07:24.966Z,26.47
2018-01-11T17:13:28.647Z,23.57
2018-01-11T17:19:32.135Z,25.00
2018-01-11T17:25:36.432Z,30.10
2018-01-11T17:31:39.939Z,31.07
2018-01-11T17:37:43.445Z,26.93
2018-01-11T17:43:47.157Z,24.93
2018-01-11T17:49:50.597Z,26.80
2018-01-11T17:55:54.184Z,27.53
2018-01-11T18:01:58.669Z,29.03
2018-01-11T18:08:02.138Z,25.07
2018-01-11T18:14:05.598Z,26.57
2018-01-11T18:20:09.022Z,23.83
2018-01-11T18:26:13.301Z,23.37
2018-01-11T18:32:16.789Z,23.63
2018-01-11T18:38:20.293Z,25.77
2018-01-11T18:44:24.818Z,28.97
2018-01-11T18:50:29.350Z,25.63
2018-01-11T18:56:32.882Z,24.50
2018-01-11T19:02:36.532Z,27.23
2018-01-11T19:08:40.037Z,27.80
2018-01-11T19:14:44.254Z,27.70
2018-01-11T19:20:47.665Z,27.70
2018-01-11T19:26:51.115Z,28.93
2018-01-11T19:32:54.760Z,25.00
2018-01-11T19:38:58.676Z,25.37
2018-01-11T19:45:02.144Z,26.03
2018-01-11T19:51:06.623Z,23.67
2018-01-11T19:57:10.168Z,28.47
2018-01-11T20:03:13.598Z,25.30
2018-01-11T20:09:17.170Z,31.50
2018-01-11T20:15:20.758Z,29.70
2018-01-11T20:21:24.969Z,28.53
2018-01-11T20:27:28.461Z,26.83
2018-01-11T20:33:31.994Z,24.83
2018-01-11T20:39:35.456Z,24.67
2018-01-11T20:45:38.938Z,28.73
2018-01-11T20:51:42.409Z,30.67
2018-01-11T20:57:46.758Z,26.43
2018-01-11T21:03:50.253Z,25.97
2018-01-11T21:09:53.791Z,36.27
2018-01-11T21:15:58.390Z,33.80
2018-01-11T21:22:01.876Z,32.90
2018-01-11T21:28:05.451Z,33.80
2018-01-11T21:34:08.927Z,32.60
2018-01-11T21:40:13.154Z,35.57
2018-01-11T21:46:16.688Z,34.40
2018-01-11T21:52:20.190Z,38.17
2018-01-11T21:58:23.788Z,52.47
2018-01-11T22:04:27.295Z,51.00
2018-01-11T22:10:30.764Z,84.73
2018-01-11T22:16:35.000Z,91.00
2018-01-11T22:22:38.494Z,79.90
2018-01-11T22:28:42.786Z,69.73
2018-01-11T22:34:46.272Z,55.27
2018-01-11T22:40:49.766Z,45.93
2018-01-11T22:46:54.050Z,53.57
2018-01-11T22:52:58.534Z,56.57
2018-01-11T22:59:02.054Z,33.80
2018-01-11T23:05:05.531Z,23.40
2018-01-11T23:11:09.779Z,28.03
2018-01-11T23:17:13.244Z,35.33
2018-01-11T23:23:16.728Z,38.37
2018-01-11T23:29:20.178Z,33.83
2018-01-11T23:35:24.914Z,38.40
2018-01-11T23:41:28.664Z,40.87
2018-01-11T23:47:32.250Z,27.43
2018-01-11T23:53:35.720Z,27.03
2018-01-11T23:59:39.952Z,25.60
